Time;durP1;ratioP1;P1;durP2;ratioP2;P2;SDS_P1;SDS_P2;PMS_P1;PMS_P2;Temp;Humidity;BMP_temperature;BMP_pressure;BME280_temperature;BME280_humidity;BME280_pressure;Samples;Min_cycle;Max_cycle;Signal;HPM_P1;HPM_P2
2023/04/10 00:01:38;;;;;;;45.88;33.13;;;;;;;;;;5073043;28;20756;-80
2023/04/10 00:04:05;;;;;;;47.63;34.07;;;;;;;;;;5055246;28;20487;-80
2023/04/10 00:06:31;;;;;;;50.28;35.28;;;;;;;;;;5056053;28;20808;-80
2023/04/10 00:08:57;;;;;;;47.42;33.70;;;;;;;;;;5056131;28;20486;-79
2023/04/10 00:11:27;;;;;;;46.45;33.63;;;;;;;;;;5072676;28;20786;-80
2023/04/10 00:13:53;;;;;;;47.22;33.85;;;;;;;;;;5055908;28;20414;-78
2023/04/10 00:16:19;;;;;;;48.08;34.55;;;;;;;;;;5056224;28;20402;-79
2023/04/10 00:18:46;;;;;;;47.10;34.27;;;;;;;;;;5072409;28;20395;-78
2023/04/10 00:21:12;;;;;;;49.67;35.47;;;;;;;;;;5055703;28;20395;-78
2023/04/10 00:23:39;;;;;;;47.75;34.85;;;;;;;;;;5072391;28;20412;-78
2023/04/10 00:26:05;;;;;;;49.50;35.22;;;;;;;;;;5072271;28;20424;-78
2023/04/10 00:28:31;;;;;;;46.90;34.97;;;;;;;;;;5056025;28;20473;-79
2023/04/10 00:30:57;;;;;;;50.87;35.40;;;;;;;;;;5072590;28;20460;-79
2023/04/10 00:33:23;;;;;;;50.20;35.10;;;;;;;;;;5055309;28;20419;-79
2023/04/10 00:35:49;;;;;;;49.60;35.58;;;;;;;;;;5055313;28;20907;-79
2023/04/10 00:38:16;;;;;;;50.58;35.35;;;;;;;;;;5072362;28;20396;-79
2023/04/10 00:40:42;;;;;;;48.53;35.47;;;;;;;;;;5055451;28;20955;-80
2023/04/10 00:43:08;;;;;;;49.92;35.58;;;;;;;;;;5055577;28;20408;-79
2023/04/10 00:45:34;;;;;;;50.88;34.85;;;;;;;;;;5055177;28;20407;-79
2023/04/10 00:48:00;;;;;;;49.88;35.38;;;;;;;;;;5072329;28;20399;-79
2023/04/10 00:50:27;;;;;;;49.42;35.28;;;;;;;;;;5055070;28;20438;-79
2023/04/10 00:52:53;;;;;;;47.40;34.75;;;;;;;;;;5055021;28;20416;-79
2023/04/10 00:55:19;;;;;;;49.57;35.60;;;;;;;;;;5055100;28;20409;-79
2023/04/10 00:57:46;;;;;;;48.25;35.17;;;8.00;99.90;;;;;;5071647;28;20914;-80
2023/04/10 01:00:14;;;;;;;48.10;34.78;;;;;;;;;;5071675;28;20406;-79
2023/04/10 01:02:40;;;;;;;47.53;33.58;;;;;;;;;;5055025;28;20430;-80
2023/04/10 01:05:07;;;;;;;48.08;35.20;;;;;;;;;;5054890;28;20408;-79
2023/04/10 01:07:33;;;;;;;47.78;34.80;;;;;;;;;;5054908;28;20911;-79
2023/04/10 01:10:05;;;;;;;49.10;35.20;;;;;;;;;;5054993;28;20482;-78
2023/04/10 01:12:51;;;;;;;47.67;35.42;;;;;;;;;;5071466;28;20497;-78
2023/04/10 01:15:25;;;;;;;48.17;35.15;;;;;;;;;;5071220;28;20411;-79
2023/04/10 01:17:51;;;;;;;46.78;35.45;;;;;;;;;;5071870;28;20399;-79
2023/04/10 01:20:25;;;;;;;45.63;34.47;;;;;;;;;;5071147;28;20404;-79
2023/04/10 01:23:09;;;;;;;47.25;34.80;;;;;;;;;;5071147;28;20416;-79
2023/04/10 01:25:44;;;;;;;48.03;35.10;;;7.70;99.90;;;;;;5054205;28;20447;-79
2023/04/10 01:28:10;;;;;;;49.35;36.17;;;;;;;;;;5054817;28;20399;-79
2023/04/10 01:30:37;;;;;;;49.42;36.55;;;;;;;;;;5071054;28;20410;-80
2023/04/10 01:33:04;;;;;;;49.08;36.67;;;;;;;;;;5070724;28;20822;-79
2023/04/10 01:35:30;;;;;;;49.53;36.47;;;;;;;;;;5054467;28;20400;-79
2023/04/10 01:37:57;;;;;;;53.78;37.78;;;;;;;;;;5070769;28;20438;-78
2023/04/10 01:40:25;;;;;;;50.97;37.95;;;;;;;;;;5054514;28;20713;-80
2023/04/10 01:42:52;;;;;;;54.50;39.03;;;;;;;;;;5070986;28;20427;-79
2023/04/10 01:45:20;;;;;;;53.85;39.30;;;;;;;;;;5070745;28;20403;-80
2023/04/10 01:47:46;;;;;;;52.80;39.33;;;;;;;;;;5054084;28;20403;-79
2023/04/10 01:50:14;;;;;;;53.90;39.80;;;7.70;99.90;;;;;;5070963;28;20396;-80
2023/04/10 01:52:41;;;;;;;54.97;41.33;;;;;;;;;;5037400;28;20427;-80
2023/04/10 01:55:07;;;;;;;54.53;40.75;;;;;;;;;;5070539;28;20403;-79
2023/04/10 01:57:35;;;;;;;55.17;41.05;;;;;;;;;;5054166;28;20403;-80
2023/04/10 02:00:01;;;;;;;55.67;41.47;;;;;;;;;;5054452;28;20538;-80
2023/04/10 02:02:34;;;;;;;53.90;40.33;;;;;;;;;;5037657;28;20471;-79
2023/04/10 02:05:00;;;;;;;57.00;40.90;;;;;;;;;;5070696;28;20458;-79
2023/04/10 02:07:35;;;;;;;58.10;41.72;;;;;;;;;;5054044;28;20552;-78
2023/04/10 02:10:01;;;;;;;57.58;42.17;;;;;;;;;;5053840;28;20404;-78
2023/04/10 02:12:31;;;;;;;57.55;41.75;;;;;;;;;;5070333;28;20420;-80
2023/04/10 02:15:00;;;;;;;58.90;42.45;;;;;;;;;;5070484;28;20538;-80
2023/04/10 02:17:28;;;;;;;57.55;42.60;;;;;;;;;;5070221;28;20415;-80
2023/04/10 02:19:56;;;;;;;58.92;43.70;;;7.50;99.90;;;;;;5070257;28;20432;-80
2023/04/10 02:22:24;;;;;;;58.43;42.17;;;;;;;;;;5070149;28;20400;-80
2023/04/10 02:24:50;;;;;;;57.63;43.30;;;;;;;;;;5053418;28;20850;-80
2023/04/10 02:27:26;;;;;;;61.20;44.15;;;;;;;;;;5069770;28;20892;-80
2023/04/10 02:29:52;;;;;;;57.83;43.33;;;;;;;;;;5053502;28;20431;-80
2023/04/10 02:32:18;;;;;;;58.78;44.22;;;;;;;;;;5070113;28;20923;-80
2023/04/10 02:34:44;;;;;;;60.50;44.38;;;;;;;;;;5037255;28;20403;-80
2023/04/10 02:37:10;;;;;;;61.00;43.75;;;;;;;;;;5037051;28;20402;-79
2023/04/10 02:39:36;;;;;;;60.92;44.20;;;;;;;;;;5036889;28;20392;-79
2023/04/10 02:42:02;;;;;;;62.08;44.90;;;;;;;;;;5070117;28;20403;-80
2023/04/10 02:44:28;;;;;;;60.55;44.00;;;;;;;;;;5070044;28;20407;-80
2023/04/10 02:46:54;;;;;;;61.40;45.27;;;;;;;;;;5070078;28;20461;-81
2023/04/10 02:49:21;;;;;;;65.07;45.13;;;;;;;;;;5036984;28;20408;-80
2023/04/10 02:51:47;;;;;;;64.70;47.15;;;;;;;;;;5053375;28;20430;-81
2023/04/10 02:54:13;;;;;;;62.50;46.63;;;;;;;;;;5036899;28;21114;-80
2023/04/10 02:56:39;;;;;;;64.53;47.17;;;;;;;;;;5053741;28;20419;-80
2023/04/10 02:59:05;;;;;;;66.95;48.67;;;;;;;;;;5070293;28;20400;-80
2023/04/10 03:01:32;;;;;;;63.78;47.42;;;;;;;;;;5053303;28;20395;-80
2023/04/10 03:03:58;;;;;;;69.68;49.53;;;;;;;;;;5070130;28;20415;-80
2023/04/10 03:06:27;;;;;;;65.32;48.40;;;;;;;;;;5070145;28;20407;-80
2023/04/10 03:08:53;;;;;;;67.40;49.17;;;;;;;;;;5053164;28;20400;-80
2023/04/10 03:11:19;;;;;;;67.78;48.88;;;;;;;;;;5053437;28;20400;-80
2023/04/10 03:13:46;;;;;;;65.03;47.78;;;;;;;;;;5069744;28;20826;-80
2023/04/10 03:16:12;;;;;;;69.00;51.03;;;;;;;;;;5069804;28;20913;-80
2023/04/10 03:18:38;;;;;;;66.20;49.22;;;;;;;;;;5069700;28;20442;-80
2023/04/10 03:21:04;;;;;;;67.68;48.42;;;;;;;;;;5053169;28;20978;-79
2023/04/10 03:23:30;;;;;;;65.85;49.33;;;;;;;;;;5053272;28;20407;-80
2023/04/10 03:25:56;;;;;;;67.43;50.28;;;;;;;;;;5067577;28;20756;-81
2023/04/10 03:28:22;;;;;;;68.32;49.45;;;;;;;;;;5053375;28;20399;-80
2023/04/10 03:30:52;;;;;;;68.47;50.13;;;;;;;;;;5052915;28;20884;-81
2023/04/10 03:33:18;;;;;;;69.90;49.50;;;;;;;;;;5069427;28;20431;-80
2023/04/10 03:35:45;;;;;;;66.68;48.97;;;;;;;;;;5053219;28;20485;-85
2023/04/10 03:38:11;;;;;;;67.28;49.83;;;;;;;;;;5054635;28;20404;-85
2023/04/10 03:40:37;;;;;;;71.28;50.83;;;;;;;;;;5056377;28;20404;-85
2023/04/10 03:43:03;;;;;;;70.30;50.63;;;;;;;;;;5041265;28;20487;-86
2023/04/10 03:45:29;;;;;;;68.82;50.80;;;;;;;;;;5074450;28;20418;-86
2023/04/10 03:47:55;;;;;;;70.95;50.33;;;;;;;;;;5073355;28;20403;-81
2023/04/10 03:50:22;;;;;;;71.75;51.78;;;;;;;;;;5056463;28;20426;-80
2023/04/10 03:52:50;;;;;;;66.18;49.10;;;;;;;;;;5072981;28;20431;-80
2023/04/10 03:55:17;;;;;;;71.55;52.22;;;;;;;;;;5060709;28;20483;-80
2023/04/10 03:57:47;;;;;;;70.30;51.40;;;;;;;;;;5063999;28;20755;-78
2023/04/10 04:00:14;;;;;;;71.35;51.83;;;;;;;;;;5057799;28;20886;-80
2023/04/10 04:02:40;;;;;;;70.40;52.13;;;;;;;;;;5075985;28;20407;-80
2023/04/10 04:05:06;;;;;;;68.68;50.53;;;;;;;;;;5056390;28;20439;-81
2023/04/10 04:07:33;;;;;;;70.78;52.60;;;;;;;;;;5045337;28;20419;-80
2023/04/10 04:09:59;;;;;;;73.68;51.80;;;;;;;;;;5051551;28;20435;-81
2023/04/10 04:12:25;;;;;;;68.88;50.65;;;;;;;;;;5068380;28;20427;-80
2023/04/10 04:14:51;;;;;;;73.65;52.05;;;;;;;;;;5074419;28;20396;-81
2023/04/10 04:17:18;;;;;;;73.00;50.70;;;;;;;;;;5073573;28;20434;-80
2023/04/10 04:19:44;;;;;;;69.10;50.58;;;;;;;;;;5056197;28;20400;-80
2023/04/10 04:22:10;;;;;;;68.03;50.38;;;;;;;;;;5056088;28;20464;-78
2023/04/10 04:24:36;;;;;;;67.33;48.93;;;;;;;;;;5073877;28;21062;-80
2023/04/10 04:27:03;;;;;;;69.10;49.30;;;;;;;;;;5077012;28;20457;-80
2023/04/10 04:29:29;;;;;;;69.03;50.38;;;;;;;;;;5076579;28;20402;-80
2023/04/10 04:31:55;;;;;;;66.68;49.20;;;;;;;;;;5059090;28;20925;-80
2023/04/10 04:34:21;;;;;;;68.50;49.58;;;;;;;;;;5075944;28;20401;-80
2023/04/10 04:36:47;;;;;;;65.43;48.08;;;;;;;;;;5075969;28;20409;-80
2023/04/10 04:39:13;;;;;;;66.40;48.95;;;;;;;;;;5059687;28;20398;-80
2023/04/10 04:41:39;;;;;;;67.25;48.70;;;;;;;;;;5059134;28;20401;-80
2023/04/10 04:44:05;;;;;;;64.60;47.73;;;;;;;;;;5075898;28;20487;-80
2023/04/10 04:46:31;;;;;;;65.15;47.75;;;;;;;;;;5059216;28;20746;-77
2023/04/10 04:48:58;;;;;;;64.15;47.50;;;;;;;;;;5058599;28;20476;-79
2023/04/10 04:51:24;;;;;;;64.43;47.42;;;;;;;;;;5075001;28;20402;-79
2023/04/10 04:53:50;;;;;;;64.73;46.37;;;;;;;;;;5075024;28;20499;-79
2023/04/10 04:56:16;;;;;;;63.45;45.58;;;;;;;;;;5058509;28;20886;-80
2023/04/10 04:58:42;;;;;;;62.03;45.38;;;;;;;;;;5075252;28;20395;-80
2023/04/10 05:01:08;;;;;;;63.10;45.22;;;;;;;;;;5075517;28;20796;-80
2023/04/10 05:03:35;;;;;;;60.83;44.97;;;;;;;;;;5075426;28;20447;-79
2023/04/10 05:06:01;;;;;;;62.78;44.50;;;;;;;;;;5058598;28;20447;-80
2023/04/10 05:08:27;;;;;;;59.95;43.08;;;;;;;;;;5074813;28;20401;-79
2023/04/10 05:10:53;;;;;;;59.35;43.28;;;;;;;;;;5058121;28;20428;-77
2023/04/10 05:13:19;;;;;;;58.53;42.63;;;;;;;;;;5058009;28;20418;-79
2023/04/10 05:15:45;;;;;;;58.97;42.67;;;;;;;;;;5058178;28;20401;-79
2023/04/10 05:18:12;;;;;;;57.92;41.75;;;;;;;;;;5075103;28;20398;-79
2023/04/10 05:20:39;;;;;;;60.83;42.63;;;;;;;;;;5075008;28;20405;-79
2023/04/10 05:23:05;;;;;;;55.97;40.92;;;;;;;;;;5057843;28;20409;-80
2023/04/10 05:25:31;;;;;;;54.47;40.75;;;;;;;;;;5057851;28;20457;-80
2023/04/10 05:27:57;;;;;;;52.47;39.65;;;;;;;;;;5058042;28;20421;-79
2023/04/10 05:30:23;;;;;;;51.58;38.33;;;;;;;;;;5074496;28;20398;-79
2023/04/10 05:32:49;;;;;;;51.03;37.20;;;;;;;;;;5074366;28;20429;-79
2023/04/10 05:35:16;;;;;;;51.43;36.77;;;;;;;;;;5057678;28;20525;-77
2023/04/10 05:37:42;;;;;;;49.13;35.83;;;;;;;;;;5074876;28;20486;-79
2023/04/10 05:40:08;;;;;;;48.38;34.92;;;;;;;;;;5074369;28;20877;-80
2023/04/10 05:42:34;;;;;;;47.92;35.13;;;;;;;;;;5057707;28;20409;-79
2023/04/10 05:45:00;;;;;;;48.28;34.67;;;;;;;;;;5057266;28;20402;-80
2023/04/10 05:47:26;;;;;;;50.50;35.17;;;;;;;;;;5074055;28;20409;-79
2023/04/10 05:49:52;;;;;;;46.40;34.80;;;;;;;;;;5057917;28;20856;-79
2023/04/10 05:52:19;;;;;;;45.95;34.00;;;;;;;;;;5090960;28;20495;-79
2023/04/10 05:54:45;;;;;;;47.45;33.97;;;;;;;;;;5057589;28;20441;-79
2023/04/10 05:57:11;;;;;;;49.78;34.45;;;;;;;;;;5057345;28;20401;-79
2023/04/10 05:59:37;;;;;;;45.25;33.53;;;;;;;;;;5057191;28;20406;-78
2023/04/10 06:02:04;;;;;;;47.90;33.85;;;;;;;;;;5073265;28;20409;-79
2023/04/10 06:04:31;;;;;;;45.58;32.63;;;;;;;;;;5073939;28;20823;-79
2023/04/10 06:06:57;;;;;;;47.38;33.35;;;;;;;;;;5057420;28;20505;-79
2023/04/10 06:09:23;;;;;;;45.75;32.70;;;;;;;;;;5057186;28;20398;-79
2023/04/10 06:11:49;;;;;;;44.38;32.65;;;;;;;;;;5073659;28;20512;-79
2023/04/10 06:14:15;;;;;;;44.92;33.38;;;;;;;;;;5073747;28;20494;-79
2023/04/10 06:16:42;;;;;;;42.30;31.48;;;;;;;;;;5073945;28;20447;-79
2023/04/10 06:19:08;;;;;;;42.40;30.90;;;;;;;;;;5057058;28;20394;-80
2023/04/10 06:21:34;;;;;;;42.27;30.60;;;;;;;;;;5040396;28;20405;-78
2023/04/10 06:24:00;;;;;;;42.58;30.73;;;;;;;;;;5057458;28;20420;-79
2023/04/10 06:26:26;;;;;;;40.10;29.57;;;;;;;;;;5073536;28;20406;-80
2023/04/10 06:28:52;;;;;;;41.33;30.65;;;;;;;;;;5057010;28;20436;-80
2023/04/10 06:31:20;;;;;;;41.55;29.75;;;;;;;;;;5056878;28;20401;-80
2023/04/10 06:33:47;;;;;;;40.97;28.52;;;;;;;;;;5057109;28;20418;-80
2023/04/10 06:36:13;;;;;;;38.53;27.63;;;;;;;;;;5056910;28;20405;-80
2023/04/10 06:38:39;;;;;;;41.47;27.15;;;;;;;;;;5073594;28;20398;-80
2023/04/10 06:41:06;;;;;;;36.45;26.58;;;;;;;;;;5057240;28;20398;-80
2023/04/10 06:43:35;;;;;;;36.03;26.67;;;;;;;;;;5056708;28;20402;-80
2023/04/10 06:46:05;;;;;;;35.95;26.83;;;;;;;;;;5057050;28;20400;-80
2023/04/10 06:48:31;;;;;;;34.47;24.83;;;;;;;;;;5056817;28;20401;-81
2023/04/10 06:50:59;;;;;;;36.88;24.77;;;;;;;;;;5073593;28;20455;-79
2023/04/10 06:53:26;;;;;;;35.65;25.55;;;;;;;;;;5073949;28;20425;-81
2023/04/10 06:55:52;;;;;;;33.65;24.23;;;;;;;;;;5057133;28;20932;-80
2023/04/10 06:58:18;;;;;;;33.35;24.15;;;;;;;;;;5073381;28;20909;-80
2023/04/10 07:00:44;;;;;;;34.95;24.73;;;;;;;;;;5073730;28;20485;-81
2023/04/10 07:03:10;;;;;;;33.17;25.02;;;;;;;;;;5090244;28;20409;-81
2023/04/10 07:05:36;;;;;;;35.92;25.10;;;;;;;;;;5056676;28;20432;-80
2023/04/10 07:08:02;;;;;;;33.08;24.13;;;;;;;;;;5057141;28;20479;-81
2023/04/10 07:10:29;;;;;;;33.33;23.55;;;;;;;;;;5073266;28;20405;-81
2023/04/10 07:12:57;;;;;;;33.72;25.17;;;;;;;;;;5056461;28;20788;-80
2023/04/10 07:15:24;;;;;;;36.67;24.75;;;;;;;;;;5059844;28;20394;-79
2023/04/10 07:17:50;;;;;;;36.25;25.35;;;;;;;;;;5076905;28;20394;-81
2023/04/10 07:20:16;;;;;;;35.42;25.27;;;;;;;;;;5077078;28;20401;-81
2023/04/10 07:22:42;;;;;;;37.63;26.23;;;;;;;;;;5060371;28;20421;-80
2023/04/10 07:25:09;;;;;;;34.35;26.38;;;;;;;;;;5059946;28;20421;-81
2023/04/10 07:27:35;;;;;;;35.33;26.38;;;;;;;;;;5060345;28;20455;-81
2023/04/10 07:30:01;;;;;;;41.83;27.27;;;;;;;;;;5076774;28;20432;-80
2023/04/10 07:32:27;;;;;;;34.53;25.50;;;;;;;;;;5076540;28;20458;-81
2023/04/10 07:34:53;;;;;;;37.33;27.98;;;;;;;;;;5060255;28;20394;-81
2023/04/10 07:37:19;;;;;;;36.88;27.23;;;;;;;;;;5076721;28;20488;-80
2023/04/10 07:39:46;;;;;;;37.10;26.50;;;;;;;;;;5061113;28;20420;-79
2023/04/10 07:42:14;;;;;;;37.05;27.75;;;;;;;;;;5082218;28;20406;-80
2023/04/10 07:44:40;;;;;;;36.67;26.38;;;;;;;;;;5080181;28;20397;-80
2023/04/10 07:47:06;;;;;;;38.92;27.20;;;;;;;;;;5065320;28;20754;-80
2023/04/10 07:49:35;;;;;;;36.77;27.70;;;;;;;;;;5083669;28;20422;-80
2023/04/10 07:52:01;;;;;;;37.88;27.42;;;;;;;;;;5068374;28;20759;-79
2023/04/10 07:54:34;;;;;;;36.78;27.17;;;;;;;;;;5082756;28;20496;-80
2023/04/10 07:57:00;;;;;;;39.33;27.25;;;;;;;;;;5060144;28;20503;-80
2023/04/10 07:59:27;;;;;;;47.53;27.45;;;;;;;;;;5076821;28;20901;-80
2023/04/10 08:01:54;;;;;;;33.67;25.10;;;;;;;;;;5076681;28;20397;-80
2023/04/10 08:04:20;;;;;;;34.80;25.05;;;;;;;;;;5076537;28;20402;-81
2023/04/10 08:06:46;;;;;;;33.28;23.55;;;;;;;;;;5077044;28;20452;-81
2023/04/10 08:09:12;;;;;;;34.70;24.10;;;;;;;;;;5076720;28;20405;-81
2023/04/10 08:11:38;;;;;;;32.30;23.83;;;;;;;;;;5077117;28;20425;-82
2023/04/10 08:14:05;;;;;;;33.33;24.38;;;;;;;;;;5077179;28;20398;-81
2023/04/10 08:16:32;;;;;;;34.88;23.00;;;;;;;;;;5061613;28;20405;-81
2023/04/10 08:18:59;;;;;;;32.15;22.95;;;;;;;;;;5061424;28;20398;-80
2023/04/10 08:21:26;;;;;;;29.58;22.30;;;;;;;;;;5062629;28;20496;-81
2023/04/10 08:23:53;;;;;;;31.70;21.95;;;;;;;;;;5061350;28;20444;-81
2023/04/10 08:26:20;;;;;;;32.17;22.40;;;;;;;;;;5060614;28;20410;-82
2023/04/10 08:28:50;;;;;;;29.95;21.90;;;;;;;;;;5061197;28;20394;-81
2023/04/10 08:31:17;;;;;;;30.85;20.95;;;;;;;;;;5077205;28;20398;-81
2023/04/10 08:33:43;;;;;;;30.20;21.35;;;;;;;;;;5060198;28;20512;-80
2023/04/10 08:36:09;;;;;;;28.85;21.10;;;;;;;;;;5077759;28;20398;-80
2023/04/10 08:38:36;;;;;;;28.95;21.00;;;;;;;;;;5076739;28;20475;-81
2023/04/10 08:41:02;;;;;;;28.20;19.73;;;;;;;;;;5060530;28;20398;-81
2023/04/10 08:43:28;;;;;;;26.10;20.20;;;;;;;;;;5061224;28;20413;-80
2023/04/10 08:45:55;;;;;;;26.73;19.63;;;;;;;;;;5059794;28;20406;-81
2023/04/10 08:48:21;;;;;;;24.83;19.60;;;;;;;;;;5076830;28;20458;-80
2023/04/10 08:50:49;;;;;;;27.92;18.98;;;13.20;99.90;;;;;;5058511;28;20924;-81
2023/04/10 08:53:15;;;;;;;25.23;19.10;;;;;;;;;;5092086;28;20785;-81
2023/04/10 08:55:43;;;;;;;25.92;19.05;;;;;;;;;;5058277;28;20394;-81
2023/04/10 08:58:12;;;;;;;24.92;18.80;;;;;;;;;;5058401;28;20390;-77
2023/04/10 09:00:38;;;;;;;24.05;18.17;;;;;;;;;;5075350;28;20401;-78
2023/04/10 09:03:07;;;;;;;26.88;19.02;;;;;;;;;;5058557;28;20393;-80
2023/04/10 09:05:35;;;;;;;25.85;17.92;;;;;;;;;;5074994;28;20405;-80
2023/04/10 09:08:02;;;;;;;24.63;18.13;;;;;;;;;;5075297;28;20410;-80
2023/04/10 09:10:28;;;;;;;25.63;17.85;;;;;;;;;;5075076;28;20405;-80
2023/04/10 09:12:54;;;;;;;24.55;17.25;;;;;;;;;;5058253;28;20426;-80
2023/04/10 09:15:20;;;;;;;23.80;17.20;;;;;;;;;;5074840;28;20404;-80
2023/04/10 09:18:01;;;;;;;24.20;17.60;;;13.30;99.90;;;;;;5074975;28;20473;-80
2023/04/10 09:20:29;;;;;;;24.65;17.90;;;13.80;99.90;;;;;;5074764;28;20406;-80
2023/04/10 09:22:56;;;;;;;23.05;16.33;;;;;;;;;;5058239;28;20496;-80
2023/04/10 09:25:32;;;;;;;20.50;16.02;;;;;;;;;;5074787;28;20418;-80
2023/04/10 09:28:00;;;;;;;20.50;15.30;;;;;;;;;;5057998;28;20402;-81
2023/04/10 09:30:33;;;;;;;18.00;14.13;;;;;;;;;;5058020;28;20497;-80
2023/04/10 09:32:59;;;;;;;17.02;14.35;;;;;;;;;;5074834;28;20921;-80
2023/04/10 09:35:37;;;;;;;19.55;13.73;;;;;;;;;;5080749;28;20394;-80
2023/04/10 09:38:15;;;;;;;19.10;13.65;;;;;;;;;;5079084;28;20402;-80
2023/04/10 09:40:42;;;;;;;22.38;13.20;;;;;;;;;;5060624;28;20405;-80
2023/04/10 09:43:22;;;;;;;16.77;12.57;;;;;;;;;;5064848;28;20413;-80
2023/04/10 09:45:52;;;;;;;18.33;12.48;;;;;;;;;;5062552;28;20402;-80
2023/04/10 09:48:18;;;;;;;15.75;11.55;;;;;;;;;;5079383;28;20402;-80
2023/04/10 09:50:45;;;;;;;14.68;11.35;;;;;;;;;;5058453;28;20439;-78
2023/04/10 09:53:18;;;;;;;14.68;11.05;;;;;;;;;;5075756;28;20418;-80
2023/04/10 09:55:45;;;;;;;15.98;10.95;;;;;;;;;;5074911;28;20405;-79
2023/04/10 09:58:11;;;;;;;15.00;10.50;;;;;;;;;;5059376;28;20433;-80
2023/04/10 10:00:51;;;;;;;17.33;10.35;;;;;;;;;;5077726;28;20407;-81
2023/04/10 10:03:20;;;;;;;13.75;9.48;;;;;;;;;;5073466;28;20407;-82
2023/04/10 10:05:52;;;;;;;14.13;10.52;;;;;;;;;;5107550;28;20405;-82
2023/04/10 10:08:18;;;;;;;13.65;10.27;;;;;;;;;;5079001;28;20409;-82
2023/04/10 10:10:45;;;;;;;12.88;10.38;;;;;;;;;;5076232;28;20444;-81
2023/04/10 10:13:16;;;;;;;13.43;10.15;;;;;;;;;;5058488;28;20453;-81
2023/04/10 10:15:42;;;;;;;14.25;10.38;;;;;;;;;;5069544;28;20394;-80
2023/04/10 10:18:33;;;;;;;12.82;9.90;;;14.60;99.90;;;;;;5089367;28;20463;-80
2023/04/10 10:21:00;;;;;;;14.05;10.30;;;;;;;;;;5085936;28;20443;-80
2023/04/10 10:23:26;;;;;;;13.63;10.43;;;;;;;;;;5059877;28;20875;-80
2023/04/10 10:25:54;;;;;;;13.67;10.10;;;14.60;99.90;;;;;;5058204;28;20422;-80
2023/04/10 10:28:21;;;;;;;14.67;10.17;;;;;;;;;;5058261;28;20486;-80
2023/04/10 10:30:48;;;;;;;13.65;10.13;;;;;;;;;;5058424;28;20483;-80
2023/04/10 10:33:14;;;;;;;17.45;9.75;;;;;;;;;;5074651;28;20782;-80
2023/04/10 10:35:41;;;;;;;14.25;10.15;;;;;;;;;;5075025;28;20770;-79
2023/04/10 10:38:07;;;;;;;12.63;9.48;;;;;;;;;;5057391;28;20873;-80
2023/04/10 10:40:54;;;;;;;12.52;10.10;;;;;;;;;;5041780;28;20412;-80
2023/04/10 10:43:42;;;;;;;13.80;10.32;;;;;;;;;;5057229;28;20406;-80
2023/04/10 10:46:31;;;;;;;11.60;9.37;;;14.70;99.90;;;;;;5057407;28;20763;-80
2023/04/10 10:49:00;;;;;;;13.20;9.30;;;;;;;;;;5075602;28;20409;-80
2023/04/10 10:51:49;;;;;;;16.33;9.75;;;14.50;99.90;;;;;;5045837;28;20401;-80
2023/04/10 10:54:32;;;;;;;11.65;9.00;;;;;;;;;;5061525;28;20402;-80
2023/04/10 10:56:58;;;;;;;12.00;8.98;;;;;;;;;;5094955;28;20396;-80
2023/04/10 10:59:43;;;;;;;12.23;8.90;;;;;;;;;;5094514;28;20429;-79
2023/04/10 11:02:19;;;;;;;11.10;8.53;;;;;;;;;;5077599;28;20746;-79
2023/04/10 11:04:46;;;;;;;11.70;8.02;;;;;;;;;;5077561;28;20480;-78
2023/04/10 11:07:12;;;;;;;10.88;7.60;;;;;;;;;;5077491;28;20432;-79
2023/04/10 11:09:50;;;;;;;13.97;7.70;;;;;;;;;;5078249;28;20833;-78
2023/04/10 11:12:16;;;;;;;12.85;7.05;;;;;;;;;;5094613;28;20476;-78
2023/04/10 11:14:44;;;;;;;9.70;7.75;;;14.90;99.90;;;;;;5060897;28;20488;-78
2023/04/10 11:17:10;;;;;;;11.05;7.53;;;;;;;;;;5060672;28;20405;-79
2023/04/10 11:19:56;;;;;;;9.30;7.30;;;15.10;99.90;;;;;;5043908;28;20525;-79
2023/04/10 11:22:22;;;;;;;10.48;7.82;;;;;;;;;;5076826;28;20397;-77
2023/04/10 11:25:00;;;;;;;9.43;7.05;;;15.10;99.90;;;;;;5043838;28;20412;-79
2023/04/10 11:27:48;;;;;;;10.20;7.70;;;15.30;99.90;;;;;;5077181;28;20406;-79
2023/04/10 11:30:34;;;;;;;10.35;7.30;;;;;;;;;;5078153;28;20401;-79
2023/04/10 11:33:01;;;;;;;10.25;7.13;;;;;;;;;;5059665;28;20424;-79
2023/04/10 11:35:27;;;;;;;8.75;7.20;;;;;;;;;;5093899;28;20394;-79
2023/04/10 11:38:15;;;;;;;8.55;6.57;;;;;;;;;;5076938;28;20908;-80
2023/04/10 11:40:54;;;;;;;11.13;7.18;;;15.10;99.90;;;;;;5093591;28;20390;-80
2023/04/10 11:43:20;;;;;;;8.70;7.00;;;;;;;;;;5043663;28;20462;-80
2023/04/10 11:45:46;;;;;;;11.00;6.90;;;;;;;;;;5060499;28;20409;-80
2023/04/10 11:48:15;;;;;;;9.47;7.00;;;;;;;;;;5094320;28;20406;-79
2023/04/10 11:50:42;;;;;;;8.43;6.35;;;;;;;;;;5093360;28;20413;-80
2023/04/10 11:53:21;;;;;;;16.63;6.55;;;;;;;;;;5043893;28;20430;-80
2023/04/10 11:55:47;;;;;;;8.10;5.87;;;;;;;;;;5076565;28;20402;-82
2023/04/10 11:58:23;;;;;;;8.07;6.03;;;;;;;;;;5093371;28;20455;-82
2023/04/10 12:01:00;;;;;;;8.20;6.57;;;;;;;;;;5092063;28;20788;-81
2023/04/10 12:03:39;;;;;;;7.97;6.20;;;;;;;;;;5093601;28;20406;-82
2023/04/10 12:06:06;;;;;;;10.50;6.82;;;;;;;;;;5093334;28;20894;-81
2023/04/10 12:08:38;;;;;;;8.30;5.80;;;;;;;;;;5093015;28;20409;-81
2023/04/10 12:11:04;;;;;;;9.48;5.57;;;;;;;;;;5093349;28;20762;-81
2023/04/10 12:13:31;;;;;;;13.40;5.72;;;;;;;;;;5092986;28;20418;-80
2023/04/10 12:15:59;;;;;;;9.38;5.55;;;;;;;;;;5092952;28;20434;-80
2023/04/10 12:18:25;;;;;;;8.63;5.38;;;;;;;;;;5092965;28;20406;-81
2023/04/10 12:20:57;;;;;;;9.45;5.32;;;;;;;;;;5092786;28;20409;-81
2023/04/10 12:23:24;;;;;;;9.52;5.82;;;;;;;;;;5093282;28;20405;-81
2023/04/10 12:25:54;;;;;;;8.10;5.53;;;;;;;;;;5092383;28;20421;-82
2023/04/10 12:28:25;;;;;;;8.40;5.38;;;;;;;;;;5092914;28;20405;-82
2023/04/10 12:30:52;;;;;;;8.35;5.55;;;;;;;;;;5075759;28;20402;-82
2023/04/10 12:33:27;;;;;;;8.40;5.65;;;;;;;;;;5092538;28;20414;-82
2023/04/10 12:35:56;;;;;;;8.10;5.80;;;;;;;;;;5092567;28;20406;-81
2023/04/10 12:38:39;;;;;;;7.65;5.80;;;;;;;;;;5097835;28;20416;-80
2023/04/10 12:41:20;;;;;;;7.78;5.75;;;;;;;;;;5092937;28;20430;-81
2023/04/10 12:43:47;;;;;;;7.40;5.55;;;;;;;;;;5092936;28;20405;-81
2023/04/10 12:46:22;;;;;;;10.10;6.03;;;;;;;;;;5092498;28;20408;-82
2023/04/10 12:48:52;;;;;;;7.80;5.85;;;;;;;;;;5092024;28;20890;-81
2023/04/10 12:51:18;;;;;;;7.50;5.90;;;;;;;;;;5092227;28;20481;-80
2023/04/10 12:53:45;;;;;;;9.50;6.07;;;;;;;;;;5091621;28;20527;-80
2023/04/10 12:56:12;;;;;;;7.47;6.40;;;;;;;;;;5092519;28;20402;-79
2023/04/10 12:58:39;;;;;;;7.33;5.90;;;;;;;;;;5075516;28;20394;-81
2023/04/10 13:01:06;;;;;;;7.30;5.30;;;;;;;;;;5075371;28;20402;-79
2023/04/10 13:03:36;;;;;;;8.10;5.87;;;;;;;;;;5092585;28;20413;-81
2023/04/10 13:06:02;;;;;;;10.45;6.07;;;;;;;;;;5092012;28;20406;-80
2023/04/10 13:08:31;;;;;;;7.50;5.87;;;;;;;;;;5092151;28;20902;-79
2023/04/10 13:11:01;;;;;;;7.93;6.10;;;;;;;;;;5091535;28;20405;-80
2023/04/10 13:13:29;;;;;;;8.90;6.57;;;;;;;;;;5042012;28;20426;-79
2023/04/10 13:15:55;;;;;;;11.57;6.78;;;;;;;;;;5092244;28;20405;-80
2023/04/10 13:18:21;;;;;;;8.80;6.70;;;;;;;;;;5091956;28;20398;-80
2023/04/10 13:20:47;;;;;;;8.18;6.40;;;;;;;;;;5074884;28;20406;-81
2023/04/10 13:23:14;;;;;;;12.63;6.72;;;;;;;;;;5091668;28;20428;-80
2023/04/10 13:25:41;;;;;;;9.37;6.40;;;;;;;;;;5087984;28;20416;-81
2023/04/10 13:28:11;;;;;;;9.60;6.60;;;;;;;;;;5072920;28;20490;-81
2023/04/10 13:30:38;;;;;;;8.18;6.60;;;;;;;;;;5039094;28;20446;-80
2023/04/10 13:33:04;;;;;;;10.13;6.30;;;;;;;;;;5054760;28;20818;-81
2023/04/10 13:35:30;;;;;;;10.18;5.82;;;;;;;;;;5071553;28;20442;-81
2023/04/10 13:37:56;;;;;;;10.50;6.50;;;;;;;;;;5054793;28;20423;-81
2023/04/10 13:40:23;;;;;;;10.15;6.40;;;;;;;;;;5071208;28;20431;-81
2023/04/10 13:42:49;;;;;;;9.38;6.07;;;;;;;;;;5055521;28;20486;-81
2023/04/10 13:45:15;;;;;;;9.33;6.50;;;;;;;;;;5054880;28;20602;-80
2023/04/10 13:47:42;;;;;;;12.02;6.50;;;;;;;;;;5071898;28;20400;-81
2023/04/10 13:50:08;;;;;;;8.70;6.63;;;;;;;;;;5071284;28;20465;-80
2023/04/10 13:52:34;;;;;;;8.65;6.18;;;;;;;;;;5071194;28;20420;-79
2023/04/10 13:55:00;;;;;;;10.63;6.13;;;;;;;;;;5071696;28;20404;-80
2023/04/10 13:57:27;;;;;;;8.10;6.53;;;;;;;;;;5055498;28;20407;-80
2023/04/10 13:59:53;;;;;;;9.70;6.63;;;;;;;;;;5055398;28;20449;-81
2023/04/10 14:02:19;;;;;;;11.65;6.28;;;;;;;;;;5055037;28;20469;-81
2023/04/10 14:04:50;;;;;;;10.40;6.53;;;;;;;;;;5055588;28;20410;-80
2023/04/10 14:07:16;;;;;;;9.52;5.85;;;;;;;;;;5039399;28;20401;-80
2023/04/10 14:09:45;;;;;;;8.10;5.70;;;;;;;;;;5055601;28;20399;-80
2023/04/10 14:12:15;;;;;;;8.85;5.90;;;;;;;;;;5055838;28;20455;-80
2023/04/10 14:14:41;;;;;;;9.32;6.07;;;;;;;;;;5055712;28;20407;-80
2023/04/10 14:17:07;;;;;;;10.95;6.10;;;;;;;;;;5055986;28;20388;-80
2023/04/10 14:19:35;;;;;;;9.52;6.00;;;;;;;;;;5055718;28;20494;-80
2023/04/10 14:22:01;;;;;;;9.88;6.47;;;;;;;;;;5055065;28;20399;-80